Time;durP1;ratioP1;P1;durP2;ratioP2;P2;SDS_P1;SDS_P2;PMS_P1;PMS_P2;Temp;Humidity;BMP_temperature;BMP_pressure;BME280_temperature;BME280_humidity;BME280_pressure;Samples;Min_cycle;Max_cycle;Signal;HPM_P1;HPM_P2
2023/12/02 00:01:51;;;;;;;30.53;20.00;;;1.40;99.90;;;;;;5050900;22;20877;-76
2023/12/02 00:04:16;;;;;;;33.47;19.77;;;1.40;99.90;;;;;;5032273;28;20178;-75
2023/12/02 00:06:42;;;;;;;32.20;21.37;;;1.40;99.90;;;;;;5032212;28;20478;-75
2023/12/02 00:09:07;;;;;;;31.23;20.53;;;1.40;99.90;;;;;;5032125;28;20178;-74
2023/12/02 00:11:33;;;;;;;31.27;20.50;;;1.50;99.90;;;;;;5032304;28;20674;-76
2023/12/02 00:13:58;;;;;;;29.57;21.10;;;1.50;99.90;;;;;;5032304;28;20629;-75
2023/12/02 00:16:24;;;;;;;27.63;18.73;;;1.50;99.90;;;;;;5031957;28;20182;-75
2023/12/02 00:18:50;;;;;;;30.23;20.13;;;1.50;99.90;;;;;;5032053;28;20592;-75
2023/12/02 00:21:15;;;;;;;34.93;21.87;;;1.40;99.90;;;;;;5032322;28;20190;-74
2023/12/02 00:23:41;;;;;;;35.83;22.20;;;1.30;99.90;;;;;;5032238;28;20166;-74
2023/12/02 00:26:07;;;;;;;31.00;20.53;;;1.30;99.90;;;;;;5032236;28;20171;-76
2023/12/02 00:28:33;;;;;;;31.30;20.53;;;1.30;99.90;;;;;;5031825;28;20185;-74
2023/12/02 00:30:59;;;;;;;33.80;20.83;;;1.30;99.90;;;;;;5032008;28;20443;-75
2023/12/02 00:33:24;;;;;;;39.77;21.33;;;1.30;99.90;;;;;;5031819;28;20182;-75
2023/12/02 00:35:50;;;;;;;31.47;21.07;;;1.40;99.90;;;;;;5032060;28;20538;-74
2023/12/02 00:38:15;;;;;;;28.27;18.87;;;1.40;99.90;;;;;;5038042;28;20198;-76
2023/12/02 00:40:41;;;;;;;33.80;21.37;;;1.40;99.90;;;;;;5029842;28;20222;-75
2023/12/02 00:43:06;;;;;;;27.80;19.90;;;1.40;99.90;;;;;;5038807;28;20190;-75
2023/12/02 00:45:32;;;;;;;31.90;18.97;;;1.40;99.90;;;;;;5042187;28;20601;-75
2023/12/02 00:47:57;;;;;;;28.80;19.30;;;1.40;99.90;;;;;;5034383;28;20193;-74
2023/12/02 00:50:23;;;;;;;31.93;20.50;;;1.40;99.90;;;;;;5042452;28;20209;-75
2023/12/02 00:52:48;;;;;;;26.73;19.33;;;1.40;99.90;;;;;;5028936;28;20711;-76
2023/12/02 00:55:14;;;;;;;31.53;20.87;;;1.40;99.90;;;;;;5030714;28;20811;-74
2023/12/02 00:57:39;;;;;;;32.00;21.07;;;1.40;99.90;;;;;;5011937;28;20234;-74
2023/12/02 01:00:05;;;;;;;38.67;22.17;;;1.40;99.90;;;;;;5011963;28;20723;-74
2023/12/02 01:02:31;;;;;;;32.43;21.63;;;1.40;99.90;;;;;;5012015;28;20171;-74
2023/12/02 01:04:56;;;;;;;31.97;20.03;;;1.30;99.90;;;;;;5012029;28;20911;-74
2023/12/02 01:07:22;;;;;;;31.90;20.40;;;1.20;99.90;;;;;;5030533;28;20613;-75
2023/12/02 01:09:47;;;;;;;31.40;20.00;;;1.30;99.90;;;;;;5031678;28;20171;-75
2023/12/02 01:12:13;;;;;;;33.40;20.90;;;1.30;99.90;;;;;;5031747;28;20174;-74
2023/12/02 01:14:38;;;;;;;30.80;20.00;;;1.20;99.90;;;;;;5031688;28;20177;-75
2023/12/02 01:17:04;;;;;;;30.43;20.80;;;1.20;99.90;;;;;;5031283;28;20257;-74
2023/12/02 01:19:29;;;;;;;28.80;20.00;;;1.10;99.90;;;;;;5031631;28;20308;-75
2023/12/02 01:21:55;;;;;;;24.70;18.00;;;1.20;99.90;;;;;;5035170;28;20216;-76
2023/12/02 01:24:21;;;;;;;29.27;17.93;;;1.20;99.90;;;;;;5035385;28;20336;-74
2023/12/02 01:26:46;;;;;;;24.13;16.50;;;1.10;99.90;;;;;;5035165;28;20167;-75
2023/12/02 01:29:12;;;;;;;27.33;19.23;;;1.10;99.90;;;;;;5035320;28;20445;-75
2023/12/02 01:31:37;;;;;;;30.87;20.80;;;1.00;99.90;;;;;;5035254;28;20190;-74
2023/12/02 01:34:03;;;;;;;28.63;19.30;;;1.10;99.90;;;;;;5034220;28;20174;-74
2023/12/02 01:36:28;;;;;;;31.27;19.10;;;1.20;99.90;;;;;;5034947;28;20166;-75
2023/12/02 01:38:54;;;;;;;28.37;18.80;;;1.20;99.90;;;;;;5035166;28;20198;-74
2023/12/02 01:41:19;;;;;;;27.07;18.20;;;1.20;99.90;;;;;;5034998;28;20226;-74
2023/12/02 01:43:45;;;;;;;29.40;18.60;;;1.10;99.90;;;;;;5035044;28;20253;-75
2023/12/02 01:46:14;;;;;;;25.67;18.20;;;1.10;99.90;;;;;;5034920;28;20179;-75
2023/12/02 01:48:40;;;;;;;26.97;16.80;;;1.10;99.90;;;;;;5034832;28;20178;-75
2023/12/02 01:51:07;;;;;;;28.30;18.70;;;1.10;99.90;;;;;;5034797;28;20453;-75
2023/12/02 01:53:32;;;;;;;26.30;18.87;;;1.10;99.90;;;;;;5034439;28;20186;-75
2023/12/02 01:55:58;;;;;;;29.83;19.33;;;1.20;99.90;;;;;;5035858;28;20433;-75
2023/12/02 01:58:24;;;;;;;29.00;18.77;;;1.10;99.90;;;;;;5044569;28;20197;-74
2023/12/02 02:00:49;;;;;;;25.20;19.53;;;1.00;99.90;;;;;;5037716;28;20237;-75
2023/12/02 02:03:15;;;;;;;25.43;17.17;;;1.00;99.90;;;;;;5040844;28;20273;-75
2023/12/02 02:05:42;;;;;;;28.60;18.73;;;1.00;99.90;;;;;;5043520;28;20182;-75
2023/12/02 02:08:08;;;;;;;30.10;18.20;;;1.00;99.90;;;;;;5052630;28;20593;-74
2023/12/02 02:10:33;;;;;;;27.57;17.30;;;1.00;99.90;;;;;;5046545;28;20502;-75
2023/12/02 02:12:59;;;;;;;28.47;18.40;;;0.90;99.90;;;;;;5034662;28;20197;-74
2023/12/02 02:15:24;;;;;;;31.27;19.57;;;0.90;99.90;;;;;;5034371;28;20182;-74
2023/12/02 02:17:50;;;;;;;29.40;19.43;;;0.90;99.90;;;;;;5034108;28;20232;-75
2023/12/02 02:20:15;;;;;;;30.47;18.97;;;0.90;99.90;;;;;;5034404;28;20658;-75
2023/12/02 02:22:41;;;;;;;27.43;19.23;;;0.80;99.90;;;;;;5034486;28;20535;-74
2023/12/02 02:25:07;;;;;;;33.73;21.00;;;0.80;99.90;;;;;;5034315;28;20163;-76
2023/12/02 02:27:32;;;;;;;27.97;18.70;;;0.80;99.90;;;;;;5034000;28;20269;-75
2023/12/02 02:29:58;;;;;;;27.80;17.97;;;0.80;99.90;;;;;;5034030;28;20504;-74
2023/12/02 02:32:23;;;;;;;28.63;19.00;;;0.80;99.90;;;;;;5033798;28;20182;-75
2023/12/02 02:34:49;;;;;;;28.40;19.27;;;0.80;99.90;;;;;;5034274;28;20177;-74
2023/12/02 02:37:14;;;;;;;32.93;19.67;;;0.90;99.90;;;;;;5033699;28;20228;-75
2023/12/02 02:39:40;;;;;;;30.93;18.57;;;0.90;99.90;;;;;;5034188;28;20170;-74
2023/12/02 02:42:06;;;;;;;26.13;17.87;;;0.90;99.90;;;;;;5034009;28;20669;-74
2023/12/02 02:44:38;;;;;;;24.83;16.83;;;0.90;99.90;;;;;;5033933;28;20253;-74
2023/12/02 02:47:04;;;;;;;29.27;18.10;;;0.80;99.90;;;;;;5033596;28;20474;-76
2023/12/02 02:49:29;;;;;;;27.23;16.80;;;0.70;99.90;;;;;;5033561;28;20799;-74
2023/12/02 02:51:55;;;;;;;25.20;17.57;;;0.80;99.90;;;;;;5033880;28;20441;-75
2023/12/02 02:54:21;;;;;;;29.87;18.03;;;0.70;99.90;;;;;;5033884;28;20524;-75
2023/12/02 02:56:46;;;;;;;31.57;21.20;;;0.70;99.90;;;;;;5033581;28;20644;-75
2023/12/02 02:59:12;;;;;;;25.07;17.87;;;0.70;99.90;;;;;;5033408;28;20452;-76
2023/12/02 03:01:42;;;;;;;24.63;17.00;;;0.70;99.90;;;;;;5032457;28;20206;-76
2023/12/02 03:04:08;;;;;;;25.20;16.63;;;0.70;99.90;;;;;;5033566;28;20643;-76
2023/12/02 03:06:34;;;;;;;25.97;17.90;;;0.70;99.90;;;;;;5034848;28;20502;-75
2023/12/02 03:08:59;;;;;;;28.90;17.60;;;0.70;99.90;;;;;;5043292;28;20872;-75
2023/12/02 03:11:25;;;;;;;21.93;15.13;;;0.70;99.90;;;;;;5027840;28;20207;-75
2023/12/02 03:13:50;;;;;;;21.20;15.20;;;0.60;99.90;;;;;;5028847;28;20596;-74
2023/12/02 03:16:16;;;;;;;27.50;17.53;;;0.60;99.90;;;;;;5013527;28;20175;-75
2023/12/02 03:18:41;;;;;;;25.80;16.90;;;0.60;99.90;;;;;;5013364;28;20198;-75
2023/12/02 03:21:07;;;;;;;28.07;17.57;;;0.60;99.90;;;;;;5013893;28;20187;-75
2023/12/02 03:23:32;;;;;;;25.03;17.00;;;0.50;99.90;;;;;;5033146;28;20231;-75
2023/12/02 03:25:58;;;;;;;23.40;18.17;;;0.50;99.90;;;;;;5033064;28;20240;-76
2023/12/02 03:28:23;;;;;;;23.33;15.73;;;0.50;99.90;;;;;;5031601;28;20182;-75
2023/12/02 03:30:50;;;;;;;25.80;17.20;;;0.60;99.90;;;;;;5033069;28;20190;-75
2023/12/02 03:33:15;;;;;;;24.20;16.20;;;0.60;99.90;;;;;;5033264;28;20182;-75
2023/12/02 03:35:41;;;;;;;21.40;14.00;;;0.60;99.90;;;;;;5033159;28;20416;-76
2023/12/02 03:38:06;;;;;;;24.03;17.00;;;0.60;99.90;;;;;;5032503;28;20190;-75
2023/12/02 03:40:32;;;;;;;21.60;14.80;;;0.50;99.90;;;;;;5032774;28;20285;-75
2023/12/02 03:42:58;;;;;;;17.33;13.10;;;0.50;99.90;;;;;;5032196;28;20170;-76
2023/12/02 03:45:24;;;;;;;22.17;13.73;;;0.50;99.90;;;;;;5032899;28;20487;-75
2023/12/02 03:47:49;;;;;;;19.53;14.10;;;0.40;99.90;;;;;;5032874;28;20421;-76
2023/12/02 03:50:15;;;;;;;24.07;16.37;;;0.50;99.90;;;;;;5032638;28;20201;-75
2023/12/02 03:52:40;;;;;;;23.27;14.47;;;0.50;99.90;;;;;;5032758;28;20253;-76
2023/12/02 03:55:07;;;;;;;20.10;14.33;;;0.40;99.90;;;;;;5032692;28;20232;-77
2023/12/02 03:57:32;;;;;;;21.37;14.53;;;0.50;99.90;;;;;;5031646;28;20208;-76
2023/12/02 03:59:58;;;;;;;20.70;13.40;;;0.50;99.90;;;;;;5032382;28;20504;-75
2023/12/02 04:02:23;;;;;;;20.57;13.20;;;0.40;99.90;;;;;;5031304;28;20202;-74
2023/12/02 04:04:49;;;;;;;20.50;13.67;;;0.50;99.90;;;;;;5032509;28;20190;-77
2023/12/02 04:07:14;;;;;;;18.90;13.40;;;0.50;99.90;;;;;;5032260;28;20682;-74
2023/12/02 04:09:40;;;;;;;20.00;13.40;;;0.40;99.90;;;;;;5032439;28;20231;-75
2023/12/02 04:12:06;;;;;;;18.30;13.20;;;0.40;99.90;;;;;;5029037;28;20574;-77
2023/12/02 04:14:31;;;;;;;18.60;13.07;;;0.40;99.90;;;;;;5038587;28;20178;-74
2023/12/02 04:16:57;;;;;;;19.63;13.57;;;0.40;99.90;;;;;;5039143;28;20178;-75
2023/12/02 04:19:22;;;;;;;15.03;11.30;;;0.30;99.90;;;;;;5040146;28;20214;-76
2023/12/02 04:21:48;;;;;;;19.13;12.40;;;0.30;99.90;;;;;;5034566;28;20195;-75
2023/12/02 04:24:13;;;;;;;18.83;12.70;;;0.30;99.90;;;;;;5050417;28;20180;-75
2023/12/02 04:26:39;;;;;;;18.73;11.60;;;0.30;99.90;;;;;;5039274;28;20669;-77
2023/12/02 04:29:04;;;;;;;16.07;12.77;;;0.30;99.90;;;;;;5032097;28;20193;-75
2023/12/02 04:31:30;;;;;;;18.53;11.90;;;0.40;99.90;;;;;;5031923;28;20202;-75
2023/12/02 04:33:56;;;;;;;15.20;10.93;;;0.30;99.90;;;;;;5032118;28;20167;-75
2023/12/02 04:36:21;;;;;;;16.13;12.30;;;0.30;99.90;;;;;;5032013;28;20246;-75
2023/12/02 04:38:47;;;;;;;16.07;11.37;;;0.30;99.90;;;;;;5031849;28;20202;-74
2023/12/02 04:41:12;;;;;;;15.93;12.07;;;0.30;99.90;;;;;;5032196;28;20334;-75
2023/12/02 04:43:38;;;;;;;14.50;10.47;;;0.30;99.90;;;;;;5031967;28;20170;-74
2023/12/02 04:46:06;;;;;;;17.47;11.77;;;0.30;99.90;;;;;;5031923;28;20582;-78
2023/12/02 04:48:33;;;;;;;14.00;11.60;;;0.30;99.90;;;;;;5031676;28;20181;-75
2023/12/02 04:50:58;;;;;;;14.10;10.60;;;0.30;99.90;;;;;;5031933;28;20494;-75
2023/12/02 04:53:23;;;;;;;14.70;10.10;;;0.30;99.90;;;;;;5032069;28;20412;-75
2023/12/02 04:55:52;;;;;;;12.70;9.80;;;0.30;99.90;;;;;;5033613;28;20166;-74
2023/12/02 04:58:18;;;;;;;16.30;10.87;;;0.30;99.90;;;;;;5035635;28;20205;-76
2023/12/02 05:00:44;;;;;;;12.67;9.70;;;0.20;99.90;;;;;;5035719;28;20610;-77
2023/12/02 05:03:10;;;;;;;17.27;11.50;;;0.20;99.90;;;;;;5035785;28;20968;-75
2023/12/02 05:05:35;;;;;;;15.20;10.73;;;0.30;99.90;;;;;;5035800;28;20189;-75
2023/12/02 05:08:01;;;;;;;16.60;10.83;;;0.30;99.90;;;;;;5035530;28;20466;-75
2023/12/02 05:10:27;;;;;;;15.13;11.83;;;0.40;99.90;;;;;;5035772;28;20198;-78
2023/12/02 05:12:52;;;;;;;15.57;10.93;;;0.40;99.90;;;;;;5035813;28;20182;-75
2023/12/02 05:15:18;;;;;;;13.50;11.17;;;0.30;99.90;;;;;;5035623;28;20182;-75
2023/12/02 05:17:45;;;;;;;15.20;11.67;;;0.30;99.90;;;;;;5035263;28;20248;-78
2023/12/02 05:20:12;;;;;;;12.13;9.77;;;0.30;99.90;;;;;;5035450;28;20198;-75
2023/12/02 05:22:39;;;;;;;16.17;11.57;;;0.30;99.90;;;;;;5035877;28;20425;-76
2023/12/02 05:25:06;;;;;;;13.33;9.93;;;0.20;99.90;;;;;;5049035;28;20924;-75
2023/12/02 05:27:32;;;;;;;15.03;12.27;;;0.20;99.90;;;;;;5054686;28;20987;-75
2023/12/02 05:29:58;;;;;;;13.60;10.23;;;0.10;99.90;;;;;;5035242;28;20452;-75
2023/12/02 05:32:23;;;;;;;11.63;9.67;;;0.20;99.90;;;;;;5042424;28;20460;-75
2023/12/02 05:34:49;;;;;;;20.83;12.90;;;0.10;99.90;;;;;;5037252;28;20178;-75
2023/12/02 05:37:14;;;;;;;17.63;11.63;;;0.10;99.90;;;;;;5045093;28;20235;-75
2023/12/02 05:39:40;;;;;;;16.47;11.33;;;0.10;99.90;;;;;;5038994;28;20174;-75
2023/12/02 05:42:06;;;;;;;14.40;10.67;;;0.10;99.90;;;;;;5041793;28;20202;-76
2023/12/02 05:44:32;;;;;;;16.73;11.80;;;0.10;99.90;;;;;;5034425;28;20190;-75
2023/12/02 05:46:58;;;;;;;13.80;10.67;;;0.10;99.90;;;;;;5042088;28;20570;-78
2023/12/02 05:49:23;;;;;;;18.23;12.70;;;0.10;99.90;;;;;;5044299;28;20718;-75
2023/12/02 05:51:49;;;;;;;16.07;11.87;;;0.20;99.90;;;;;;5043895;28;20221;-75
2023/12/02 05:54:14;;;;;;;14.30;10.60;;;0.20;99.90;;;;;;5038840;28;20196;-76
2023/12/02 05:56:40;;;;;;;16.60;12.67;;;0.30;99.90;;;;;;5036905;28;20180;-75
2023/12/02 05:59:06;;;;;;;16.37;11.50;;;0.30;99.90;;;;;;5048721;28;20205;-75
2023/12/02 06:01:31;;;;;;;17.30;11.70;;;0.20;99.90;;;;;;5053090;22;20487;-70
2023/12/02 06:03:57;;;;;;;17.40;12.23;;;0.20;99.90;;;;;;5033581;28;20170;-70
2023/12/02 06:06:22;;;;;;;16.10;10.40;;;0.10;99.90;;;;;;5043865;28;20170;-70
2023/12/02 06:08:48;;;;;;;15.40;11.87;;;0.10;99.90;;;;;;5032048;28;20178;-70
2023/12/02 06:11:13;;;;;;;14.70;11.07;;;0.00;99.90;;;;;;5034402;28;20596;-69
2023/12/02 06:13:39;;;;;;;14.30;10.40;;;0.00;99.90;;;;;;5034548;28;20666;-70
2023/12/02 06:16:05;;;;;;;20.60;12.40;;;0.00;99.90;;;;;;5034520;28;20189;-70
2023/12/02 06:18:30;;;;;;;21.03;13.50;;;0.00;99.90;;;;;;5034186;28;20201;-70
2023/12/02 06:20:57;;;;;;;20.10;12.53;;;0.00;99.90;;;;;;5034343;28;20429;-70
2023/12/02 06:23:23;;;;;;;16.60;12.67;;;0.10;99.90;;;;;;5034229;28;20220;-70
2023/12/02 06:25:49;;;;;;;13.90;10.37;;;0.10;99.90;;;;;;5034352;28;20457;-70
2023/12/02 06:28:15;;;;;;;15.07;11.63;;;0.10;99.90;;;;;;5033945;28;20428;-69
2023/12/02 06:30:40;;;;;;;16.23;12.00;;;0.20;99.90;;;;;;5034227;28;20444;-70
2023/12/02 06:33:06;;;;;;;18.07;12.93;;;0.10;99.90;;;;;;5034351;28;20170;-70
2023/12/02 06:35:32;;;;;;;14.50;11.23;;;0.00;99.90;;;;;;5034314;28;20544;-70
2023/12/02 06:37:58;;;;;;;13.97;10.93;;;0.00;99.90;;;;;;5033753;28;20191;-70
2023/12/02 06:40:23;;;;;;;15.87;12.50;;;0.00;99.90;;;;;;5034014;28;20424;-70
2023/12/02 06:42:49;;;;;;;17.60;11.90;;;0.00;99.90;;;;;;5034099;28;20640;-70
2023/12/02 06:45:14;;;;;;;12.90;11.27;;;0.00;99.90;;;;;;5033865;28;20232;-70
2023/12/02 06:47:40;;;;;;;16.53;11.80;;;0.00;99.90;;;;;;5033710;28;20169;-70
2023/12/02 06:50:07;;;;;;;18.67;12.37;;;-0.10;99.90;;;;;;5033796;28;20209;-70
2023/12/02 06:52:32;;;;;;;17.13;11.17;;;-0.10;99.90;;;;;;5033783;28;20180;-72
2023/12/02 06:54:58;;;;;;;15.87;11.23;;;-0.20;99.90;;;;;;5033774;28;20834;-71
2023/12/02 06:57:23;;;;;;;19.10;12.63;;;-0.30;99.90;;;;;;5033406;28;20273;-70
2023/12/02 06:59:51;;;;;;;16.80;11.83;;;-0.30;99.90;;;;;;5033655;28;20217;-70
2023/12/02 07:02:16;;;;;;;14.37;10.90;;;-0.30;99.90;;;;;;5015566;28;20210;-70
2023/12/02 07:04:42;;;;;;;16.90;11.77;;;-0.30;99.90;;;;;;5033640;28;20466;-70
2023/12/02 07:07:07;;;;;;;20.37;12.67;;;-0.30;99.90;;;;;;5032732;28;20516;-69
2023/12/02 07:09:33;;;;;;;19.17;12.80;;;-0.20;99.90;;;;;;5042503;28;20182;-69
2023/12/02 07:11:58;;;;;;;19.60;13.73;;;-0.20;99.90;;;;;;5036623;28;20209;-70
2023/12/02 07:14:24;;;;;;;19.53;13.23;;;-0.30;99.90;;;;;;5048748;28;20244;-70
2023/12/02 07:16:49;;;;;;;19.27;13.37;;;-0.30;99.90;;;;;;5049726;28;20182;-69
2023/12/02 07:19:15;;;;;;;21.97;14.27;;;-0.30;99.90;;;;;;5030910;28;20221;-70
2023/12/02 07:21:40;;;;;;;18.40;12.70;;;-0.30;99.90;;;;;;5033133;28;20190;-70
2023/12/02 07:24:06;;;;;;;20.70;14.13;;;-0.40;99.90;;;;;;5033310;28;20656;-70
2023/12/02 07:26:31;;;;;;;19.93;12.47;;;-0.40;99.90;;;;;;5032892;28;20170;-70
2023/12/02 07:28:57;;;;;;;23.93;15.60;;;-0.40;99.90;;;;;;5033030;28;20170;-70
2023/12/02 07:31:22;;;;;;;18.70;13.77;;;-0.30;99.90;;;;;;5033065;28;20217;-70
2023/12/02 07:33:48;;;;;;;22.17;16.00;;;-0.30;99.90;;;;;;5033182;28;20189;-70
2023/12/02 07:36:13;;;;;;;20.20;14.23;;;-0.30;99.90;;;;;;5032666;28;20584;-69
2023/12/02 07:38:40;;;;;;;23.07;14.87;;;-0.20;99.90;;;;;;5032743;28;20209;-70
2023/12/02 07:41:10;;;;;;;21.77;16.17;;;-0.20;99.90;;;;;;5032886;28;20627;-70
2023/12/02 07:43:35;;;;;;;23.07;16.20;;;-0.10;99.90;;;;;;5032862;28;20424;-70
2023/12/02 07:46:01;;;;;;;22.87;15.53;;;-0.10;99.90;;;;;;5032778;28;20417;-70
2023/12/02 07:48:27;;;;;;;19.13;13.53;;;-0.10;99.90;;;;;;5032600;28;20166;-70
2023/12/02 07:50:53;;;;;;;19.17;13.63;;;-0.10;99.90;;;;;;5032577;28;20255;-71
2023/12/02 07:53:18;;;;;;;22.30;14.60;;;-0.20;99.90;;;;;;5032626;28;20232;-71
2023/12/02 07:55:44;;;;;;;18.33;12.73;;;-0.20;99.90;;;;;;5032696;28;20506;-72
2023/12/02 07:58:09;;;;;;;22.30;14.20;;;-0.20;99.90;;;;;;5032330;28;20190;-71
2023/12/02 08:00:35;;;;;;;18.40;13.47;;;-0.20;99.90;;;;;;5032496;28;20202;-72
2023/12/02 08:03:01;;;;;;;17.43;12.30;;;-0.20;99.90;;;;;;5032620;28;20170;-71
2023/12/02 08:05:26;;;;;;;21.70;13.17;;;-0.20;99.90;;;;;;5032432;28;20249;-72
2023/12/02 08:07:52;;;;;;;17.03;11.67;;;-0.20;99.90;;;;;;5032224;28;20503;-71
2023/12/02 08:10:18;;;;;;;16.07;12.60;;;-0.20;99.90;;;;;;5030937;28;20170;-72
2023/12/02 08:12:43;;;;;;;19.27;12.87;;;-0.20;99.90;;;;;;5032326;28;20183;-72
2023/12/02 08:15:09;;;;;;;18.30;13.83;;;-0.20;99.90;;;;;;5036480;28;20469;-72
2023/12/02 08:17:35;;;;;;;19.43;12.07;;;-0.20;99.90;;;;;;5039235;28;20202;-71
2023/12/02 08:20:05;;;;;;;17.40;12.67;;;-0.20;99.90;;;;;;5039173;28;20208;-72
2023/12/02 08:22:31;;;;;;;20.47;14.33;;;-0.20;99.90;;;;;;5036726;28;20502;-72
2023/12/02 08:24:57;;;;;;;20.97;13.87;;;-0.10;99.90;;;;;;5045789;28;20416;-71
2023/12/02 08:27:22;;;;;;;21.10;14.60;;;-0.10;99.90;;;;;;5041153;28;21008;-72
2023/12/02 08:29:48;;;;;;;18.43;13.60;;;-0.10;99.90;;;;;;5031941;28;20632;-71
2023/12/02 08:32:14;;;;;;;24.90;15.77;;;-0.10;99.90;;;;;;5032161;28;20603;-72
2023/12/02 08:34:39;;;;;;;23.37;15.73;;;-0.10;99.90;;;;;;5031984;28;20417;-71
2023/12/02 08:37:06;;;;;;;22.13;13.93;;;-0.10;99.90;;;;;;5031826;28;20181;-71
2023/12/02 08:39:31;;;;;;;22.63;15.50;;;0.00;99.90;;;;;;5031922;28;20260;-70
2023/12/02 08:41:57;;;;;;;20.70;12.57;;;-0.10;99.90;;;;;;5031984;28;20429;-70
2023/12/02 08:44:23;;;;;;;21.83;14.73;;;-0.20;99.90;;;;;;5031838;28;20193;-70
2023/12/02 08:46:50;;;;;;;22.83;15.53;;;-0.10;99.90;;;;;;5031711;28;20249;-69
2023/12/02 08:49:15;;;;;;;21.77;13.27;;;-0.10;99.90;;;;;;5031838;28;20453;-70
2023/12/02 08:51:41;;;;;;;17.33;13.07;;;-0.10;99.90;;;;;;5030777;28;20472;-70
2023/12/02 08:54:06;;;;;;;22.80;13.80;;;-0.10;99.90;;;;;;5031924;28;20166;-70
2023/12/02 08:56:33;;;;;;;18.47;13.87;;;-0.10;99.90;;;;;;5031677;28;20170;-69
2023/12/02 08:58:59;;;;;;;18.77;13.73;;;-0.10;99.90;;;;;;5031663;28;20352;-70
2023/12/02 09:01:25;;;;;;;20.73;15.80;;;-0.10;99.90;;;;;;5031642;28;21102;-69
2023/12/02 09:03:50;;;;;;;19.50;13.70;;;0.00;99.90;;;;;;5031620;28;20413;-70
2023/12/02 09:06:16;;;;;;;20.50;13.27;;;-0.10;99.90;;;;;;5031644;28;20428;-70
2023/12/02 09:08:41;;;;;;;17.90;13.60;;;-0.10;99.90;;;;;;5031617;28;20170;-69
2023/12/02 09:11:07;;;;;;;16.73;12.63;;;-0.10;99.90;;;;;;5031687;28;20193;-69
2023/12/02 09:13:32;;;;;;;16.63;12.17;;;-0.10;99.90;;;;;;5031764;28;20178;-70
2023/12/02 09:15:59;;;;;;;17.90;12.47;;;-0.10;99.90;;;;;;5031618;28;20250;-70
2023/12/02 09:18:34;;;;;;;17.17;13.40;;;-0.20;99.90;;;;;;5031163;28;20564;-69
2023/12/02 09:21:00;;;;;;;17.23;12.10;;;-0.20;99.90;;;;;;5031309;28;21000;-69
2023/12/02 09:23:27;;;;;;;17.77;13.53;;;-0.20;99.90;;;;;;5034893;28;20485;-72
2023/12/02 09:25:53;;;;;;;17.90;14.23;;;-0.30;99.90;;;;;;5027379;28;20167;-71
2023/12/02 09:28:26;;;;;;;15.27;12.20;;;-0.30;99.90;;;;;;5028664;28;20868;-71
2023/12/02 09:30:56;;;;;;;18.70;13.30;;;-0.30;99.90;;;;;;5011731;28;21028;-72
2023/12/02 09:33:21;;;;;;;17.47;12.53;;;-0.10;99.90;;;;;;5011787;28;20414;-72
2023/12/02 09:35:52;;;;;;;20.00;12.53;;;0.00;99.90;;;;;;5017710;28;20420;-71
2023/12/02 09:38:18;;;;;;;15.07;10.93;;;0.10;99.90;;;;;;5031189;28;20194;-69
2023/12/02 09:41:04;;;;;;;16.27;12.37;;;0.10;99.90;;;;;;5031384;28;20433;-69
2023/12/02 09:43:44;;;;;;;20.43;13.27;;;0.10;99.90;;;;;;5035133;28;20162;-70
2023/12/02 09:46:32;;;;;;;17.20;13.20;;;0.20;99.90;;;;;;5035144;28;20786;-69
2023/12/02 09:49:15;;;;;;;17.70;13.20;;;0.20;99.90;;;;;;5035114;28;20824;-70
2023/12/02 09:52:19;;;;;;;15.00;12.33;;;0.20;99.90;;;;;;5034903;28;20433;-69
2023/12/02 09:54:56;;;;;;;15.33;12.00;;;0.10;99.90;;;;;;5015250;28;20436;-69
2023/12/02 09:57:32;;;;;;;17.37;12.70;;;-0.10;99.90;;;;;;5014848;28;20456;-69
2023/12/02 10:00:01;;;;;;;14.00;11.40;;;-0.10;99.90;;;;;;5014940;28;20926;-69
2023/12/02 10:02:57;;;;;;;18.80;11.67;;;0.00;99.90;;;;;;5014807;28;20497;-69
2023/12/02 10:05:23;;;;;;;16.17;12.33;;;0.00;99.90;;;;;;5014957;28;20828;-69
2023/12/02 10:08:04;;;;;;;17.23;12.80;;;0.00;99.90;;;;;;5014677;28;20410;-72
2023/12/02 10:10:52;;;;;;;15.10;10.70;;;0.00;99.90;;;;;;5025248;28;20488;-72
2023/12/02 10:13:53;;;;;;;14.80;12.30;;;0.10;99.90;;;;;;5034710;28;20417;-71
2023/12/02 10:16:22;;;;;;;16.70;11.93;;;0.10;99.90;;;;;;5034552;28;20477;-71
2023/12/02 10:18:52;;;;;;;16.37;12.87;;;0.10;99.90;;;;;;5032931;28;20455;-71
2023/12/02 10:21:20;;;;;;;18.40;12.90;;;0.00;99.90;;;;;;5034424;28;20437;-71
2023/12/02 10:23:57;;;;;;;14.90;12.37;;;0.10;99.90;;;;;;5034439;28;20451;-71
2023/12/02 10:26:43;;;;;;;17.77;13.03;;;0.10;99.90;;;;;;5037720;28;20432;-71
2023/12/02 10:29:15;;;;;;;18.37;12.30;;;0.00;99.90;;;;;;5039935;28;20424;-71
2023/12/02 10:32:04;;;;;;;15.57;11.47;;;0.10;99.90;;;;;;5038596;28;20455;-71
2023/12/02 10:34:38;;;;;;;12.50;10.17;;;0.20;99.90;;;;;;5036957;28;20975;-70
2023/12/02 10:37:04;;;;;;;17.33;13.00;;;0.20;99.90;;;;;;5049499;28;20518;-71
2023/12/02 10:39:51;;;;;;;16.43;12.17;;;0.30;99.90;;;;;;5046295;28;20471;-71
2023/12/02 10:42:29;;;;;;;17.70;11.90;;;0.40;99.90;;;;;;5034090;28;20437;-71
2023/12/02 10:45:04;;;;;;;19.77;13.60;;;0.20;99.90;;;;;;5033968;28;20559;-69
2023/12/02 10:47:31;;;;;;;19.30;12.70;;;0.20;99.90;;;;;;5032496;28;20417;-72
2023/12/02 10:50:01;;;;;;;17.93;12.63;;;0.20;99.90;;;;;;5034052;28;20421;-70
2023/12/02 10:52:28;;;;;;;18.83;13.53;;;0.20;99.90;;;;;;5033881;28;20459;-69
2023/12/02 10:54:58;;;;;;;15.03;11.67;;;0.30;99.90;;;;;;5033851;28;20420;-69
2023/12/02 10:57:25;;;;;;;18.60;13.03;;;0.20;99.90;;;;;;5033644;28;20838;-69
2023/12/02 11:00:06;;;;;;;18.70;13.30;;;0.20;99.90;;;;;;5033769;28;20918;-69
2023/12/02 11:03:11;;;;;;;17.53;12.90;;;0.20;99.90;;;;;;5033181;28;20448;-69
2023/12/02 11:05:49;;;;;;;14.50;10.90;;;0.20;99.90;;;;;;5003449;28;20459;-69
2023/12/02 11:08:21;;;;;;;19.97;12.37;;;0.20;99.90;;;;;;5033307;28;20455;-69
2023/12/02 11:10:49;;;;;;;16.30;11.13;;;0.20;99.90;;;;;;5033461;28;20448;-69
2023/12/02 11:13:20;;;;;;;19.60;13.90;;;0.20;99.90;;;;;;5033501;28;20416;-69
2023/12/02 11:16:16;;;;;;;17.90;12.07;;;0.30;99.90;;;;;;5033435;28;20417;-69
2023/12/02 11:18:55;;;;;;;17.47;11.67;;;0.30;99.90;;;;;;5033080;28;20464;-69
2023/12/02 11:22:00;;;;;;;15.17;12.03;;;0.20;99.90;;;;;;5033211;28;20958;-69
2023/12/02 11:24:46;;;;;;;15.80;11.93;;;0.20;99.90;;;;;;5031629;28;21011;-69
2023/12/02 11:27:26;;;;;;;16.23;12.30;;;0.20;99.90;;;;;;5032949;28;20409;-69
2023/12/02 11:30:24;;;;;;;21.60;12.43;;;0.10;99.90;;;;;;5013380;28;20426;-69
2023/12/02 11:33:22;;;;;;;14.20;10.97;;;0.10;99.90;;;;;;5005480;28;21136;-69
2023/12/02 11:36:08;;;;;;;15.93;12.77;;;0.10;99.90;;;;;;5022911;28;20432;-69
2023/12/02 11:38:41;;;;;;;15.97;11.80;;;0.00;99.90;;;;;;5028565;28;20809;-69
2023/12/02 11:41:18;;;;;;;17.13;11.43;;;0.10;99.90;;;;;;5042622;28;20793;-69
2023/12/02 11:44:07;;;;;;;14.33;10.80;;;0.20;99.90;;;;;;5039465;28;20432;-69
2023/12/02 11:46:50;;;;;;;13.10;9.03;;;0.20;99.90;;;;;;5004254;28;20973;-69
2023/12/02 11:49:36;;;;;;;17.50;12.43;;;0.00;99.90;;;;;;5044755;28;20424;-69
2023/12/02 11:52:22;;;;;;;16.50;11.50;;;0.10;99.90;;;;;;5044283;28;20567;-69
2023/12/02 11:55:07;;;;;;;16.30;11.40;;;0.20;99.90;;;;;;5032664;28;20864;-69
2023/12/02 11:58:26;;;;;;;12.77;10.73;;;0.30;99.90;;;;;;5032383;28;20435;-69
2023/12/02 12:01:24;;;;;;;14.43;11.07;;;0.20;99.90;;;;;;5031360;28;20471;-68
2023/12/02 12:04:17;;;;;;;12.60;9.80;;;0.20;99.90;;;;;;5032258;28;20413;-71
2023/12/02 12:07:07;;;;;;;12.53;10.33;;;0.10;99.90;;;;;;5032267;28;20416;-69
2023/12/02 12:09:44;;;;;;;13.07;8.70;;;0.10;99.90;;;;;;5032448;28;20424;-69
2023/12/02 12:12:12;;;;;;;13.43;10.30;;;0.00;99.90;;;;;;5032503;28;20440;-69
2023/12/02 12:14:39;;;;;;;18.40;11.07;;;0.10;99.90;;;;;;5032433;28;20968;-69
2023/12/02 12:17:05;;;;;;;14.10;11.07;;;0.20;99.90;;;;;;5032211;28;20427;-69
2023/12/02 12:19:30;;;;;;;13.00;10.27;;;0.10;99.90;;;;;;5032218;28;20835;-71
2023/12/02 12:21:59;;;;;;;11.83;9.50;;;0.00;99.90;;;;;;5032460;28;20194;-69
2023/12/02 12:24:26;;;;;;;11.53;10.37;;;0.00;99.90;;;;;;5032276;28;20516;-69
2023/12/02 12:26:51;;;;;;;11.70;9.83;;;-0.10;99.90;;;;;;5031810;28;20456;-69
2023/12/02 12:29:18;;;;;;;13.37;9.70;;;-0.10;99.90;;;;;;5032121;28;20425;-69
2023/12/02 12:31:44;;;;;;;12.93;10.40;;;-0.10;99.90;;;;;;5032163;28;20277;-69
2023/12/02 12:34:11;;;;;;;13.83;10.60;;;-0.10;99.90;;;;;;5030784;28;20466;-71
2023/12/02 12:36:39;;;;;;;16.17;10.50;;;-0.20;99.90;;;;;;5031799;28;20781;-69
2023/12/02 12:39:06;;;;;;;12.10;9.87;;;-0.30;99.90;;;;;;5032027;28;21068;-69
2023/12/02 12:41:31;;;;;;;11.37;9.30;;;-0.20;99.90;;;;;;5032232;28;20441;-69
2023/12/02 12:43:57;;;;;;;11.60;8.57;;;-0.20;99.90;;;;;;5031826;28;20436;-69